Back to top

Douglas, WY weather

Converse County Airport, Douglas, WY: 12/11/2019 17:53
Visibility10 statute mileslots of clouds
View 7-Day Forecast
Area Summary
Sky/CloudsSolid Overcast at 9000ft
Weather [last 24 hours]None
Pressure29.92 in.Hg (1013 hPa)
Dew Point23 °F (-5 °C)
Relative Humidity 61 %
Temperature35.1 °F (1.7 °C)red thermometer
Wind Chill32.3 °F (0.145 °C)
Reading TimeMinimum to Maximum Temperature
6-hr ending 12/11@16:5337 °F to 44.1 °F (2.8 °C to 6.7 °C)
6-hr ending 12/11@10:5318 °F to 43 °F (-7.8 °C to 6.1 °C)
6-hr ending 12/11@04:5315.1 °F to 26.1 °F (-9.4 °C to -3.3 °C)
6-hr ending 12/10@22:5317.1 °F to 28.9 °F (-8.3 °C to -1.7 °C)
24-hr ending 12/10@23:5312.9 °F to 34 °F (-10.6 °C to 1.1 °C)
Wind3.45 MPH (3 KT) green arrow pointing 292.5 degrees
Wind FromWest/Northwest (300 Degrees)
Rolling 24-hr Peak Wind31.1 MPH (27 KT) on 12/11@16:05
Rolling 24-hr Peak Wind FromWest (270 Degrees)
Twilight Begins06:49Sunshine Yesterday
Sunrise07:21N/A
Sunset16:29
Twilight Ends17:01
METARKDGW 120053Z AUTO 30003KT 10SM OVC090 02/M05 A2992 RMK AO2 SLP161 T00171050
Tags: